createdAt,value
2022-10-02T00:04:26.570Z,11
2022-10-02T00:09:26.608Z,11.1
2022-10-02T00:14:26.527Z,11.1
2022-10-02T00:29:31.473Z,11.3
2022-10-02T00:34:58.914Z,11.4
2022-10-02T00:39:39.393Z,11.4
2022-10-02T00:44:27.465Z,11.5
2022-10-02T00:49:26.831Z,11.4
2022-10-02T00:54:27.504Z,11.4
2022-10-02T00:59:26.537Z,11.4
2022-10-02T01:04:26.546Z,11.3
2022-10-02T01:09:26.596Z,11.3
2022-10-02T01:14:26.513Z,11.3
2022-10-02T01:19:26.621Z,11.2
2022-10-02T01:24:26.535Z,11.2
2022-10-02T01:29:26.522Z,11.2
2022-10-02T01:34:26.697Z,11.2
2022-10-02T01:39:26.716Z,11.2
2022-10-02T01:44:26.568Z,11.1
2022-10-02T01:49:26.577Z,11
2022-10-02T01:54:26.511Z,10.9
2022-10-02T01:59:26.579Z,10.9
2022-10-02T02:04:26.519Z,10.9
2022-10-02T02:09:26.624Z,10.9
2022-10-02T02:14:26.701Z,10.9
2022-10-02T02:19:26.536Z,10.9
2022-10-02T02:34:26.602Z,10.9
2022-10-02T02:39:26.584Z,10.8
2022-10-02T02:44:32.050Z,10.9
2022-10-02T02:49:26.592Z,10.9
2022-10-02T02:54:26.499Z,10.9
2022-10-02T02:59:26.785Z,10.9
2022-10-02T03:04:26.551Z,10.9
2022-10-02T03:09:26.547Z,11
2022-10-02T03:14:26.533Z,11
2022-10-02T03:19:26.635Z,11
2022-10-02T03:24:26.546Z,11.1
2022-10-02T03:29:26.595Z,11.1
2022-10-02T03:34:26.564Z,11.1
2022-10-02T03:39:26.658Z,11.2
2022-10-02T03:44:26.524Z,11.2
2022-10-02T03:55:36.184Z,11.2
2022-10-02T03:59:26.707Z,11.3
2022-10-02T04:04:26.715Z,11.3
2022-10-02T04:09:26.602Z,11.2
2022-10-02T04:14:26.572Z,11.3
2022-10-02T04:19:26.541Z,11.3
2022-10-02T04:24:26.612Z,11.3
2022-10-02T04:29:26.517Z,11.4
2022-10-02T04:34:26.545Z,11.4
2022-10-02T04:39:26.599Z,11.4
2022-10-02T04:44:26.539Z,11.4
2022-10-02T04:49:26.602Z,11.3
2022-10-02T04:54:26.648Z,11.3
2022-10-02T04:59:26.590Z,11.3
2022-10-02T05:04:26.574Z,11.3
2022-10-02T05:09:28.486Z,11.3
2022-10-02T05:14:26.605Z,11.3
2022-10-02T05:19:26.580Z,11.3
2022-10-02T05:24:29.746Z,11.3
2022-10-02T05:29:26.583Z,11.3
2022-10-02T05:34:26.689Z,11.3
2022-10-02T05:39:26.647Z,11.3
2022-10-02T05:44:26.562Z,11.3
2022-10-02T05:49:26.527Z,11.4
2022-10-02T05:54:26.593Z,11.4
2022-10-02T05:59:26.568Z,11.4
2022-10-02T06:04:26.570Z,11.4
2022-10-02T06:09:26.532Z,11.5
2022-10-02T06:14:26.610Z,11.6
2022-10-02T06:19:26.546Z,11.6
2022-10-02T06:24:26.626Z,11.6
2022-10-02T06:29:27.285Z,11.6
2022-10-02T06:34:26.599Z,11.6
2022-10-02T06:39:26.594Z,11.6
2022-10-02T06:44:26.624Z,11.7
2022-10-02T06:49:26.551Z,11.7
2022-10-02T06:54:26.616Z,11.8
2022-10-02T06:59:26.591Z,11.8
2022-10-02T07:04:26.572Z,11.8
2022-10-02T07:09:26.567Z,11.7
2022-10-02T07:14:26.559Z,11.8
2022-10-02T07:19:26.574Z,11.8
2022-10-02T07:24:26.623Z,11.8
2022-10-02T07:29:26.584Z,11.8
2022-10-02T07:34:26.936Z,11.8
2022-10-02T07:39:26.552Z,11.8
2022-10-02T07:44:26.553Z,11.8
2022-10-02T07:49:26.535Z,11.9
2022-10-02T07:54:26.547Z,11.8
2022-10-02T07:59:26.510Z,11.9
2022-10-02T08:04:26.556Z,11.9
2022-10-02T08:09:26.582Z,11.9
2022-10-02T08:14:26.578Z,11.9
2022-10-02T08:19:26.639Z,11.9
2022-10-02T08:24:26.551Z,11.9
2022-10-02T08:29:26.532Z,11.9
2022-10-02T08:34:26.566Z,11.8
2022-10-02T08:39:26.578Z,11.7
2022-10-02T08:44:26.562Z,11.6
2022-10-02T08:49:26.648Z,11.6
2022-10-02T08:54:26.578Z,11.6
2022-10-02T08:59:26.641Z,11.7
2022-10-02T09:04:26.576Z,11.8
2022-10-02T09:09:26.628Z,11.9
2022-10-02T09:14:26.583Z,11.9
2022-10-02T09:19:26.636Z,11.9
2022-10-02T09:24:26.579Z,12
2022-10-02T09:29:26.586Z,12
2022-10-02T09:34:26.614Z,12
2022-10-02T09:39:26.664Z,12.2
2022-10-02T09:44:26.768Z,12.3
2022-10-02T09:49:26.577Z,12.4
2022-10-02T09:54:44.341Z,12.4
2022-10-02T09:59:26.664Z,12.3
2022-10-02T10:04:33.784Z,12.3
2022-10-02T10:09:26.625Z,12.4
2022-10-02T10:14:26.622Z,12.4
2022-10-02T10:19:26.601Z,12.4
2022-10-02T10:24:26.688Z,12.4
2022-10-02T10:29:26.585Z,12.4
2022-10-02T10:34:26.656Z,12.4
2022-10-02T10:39:26.653Z,12.5
2022-10-02T10:44:26.584Z,12.4
2022-10-02T10:49:26.605Z,12.3
2022-10-02T10:54:26.632Z,12.3
2022-10-02T10:59:26.640Z,12.3
2022-10-02T11:04:26.585Z,12.2
2022-10-02T11:09:26.645Z,12.2
2022-10-02T11:14:26.661Z,12.2
2022-10-02T11:19:26.653Z,12.2
2022-10-02T11:24:26.592Z,12.2
2022-10-02T11:29:26.580Z,12.3
2022-10-02T11:34:26.632Z,12.2
2022-10-02T11:39:26.598Z,12.2
2022-10-02T11:44:26.618Z,12.3
2022-10-02T11:49:26.658Z,12.4
2022-10-02T11:54:26.651Z,12.3
2022-10-02T11:59:26.737Z,12.3
2022-10-02T12:04:26.699Z,12.3
2022-10-02T12:09:26.673Z,12.2
2022-10-02T12:14:26.637Z,12.2
2022-10-02T12:19:26.615Z,12.2
2022-10-02T12:24:26.704Z,12.2
2022-10-02T12:29:27.634Z,12.1
2022-10-02T12:34:26.630Z,12
2022-10-02T12:39:26.993Z,12.1
2022-10-02T12:44:26.680Z,12.1
2022-10-02T12:49:26.728Z,12.1
2022-10-02T12:54:26.727Z,12.1
2022-10-02T12:59:26.778Z,12.1
2022-10-02T13:04:26.694Z,12.1
2022-10-02T13:09:29.775Z,12.1
2022-10-02T13:14:26.658Z,12.1
2022-10-02T13:19:26.678Z,12.1
2022-10-02T13:24:26.674Z,12.1
2022-10-02T13:29:26.684Z,12.1
2022-10-02T13:34:26.680Z,12.1
2022-10-02T13:39:26.680Z,12.1
2022-10-02T13:44:26.671Z,12.1
2022-10-02T13:49:26.676Z,12.1
2022-10-02T13:54:26.695Z,12.1
2022-10-02T13:59:26.677Z,12.1
2022-10-02T14:04:26.670Z,12
2022-10-02T14:09:26.627Z,12.1
2022-10-02T14:14:26.657Z,12.2
2022-10-02T14:19:26.617Z,12.1
2022-10-02T14:24:26.681Z,12.1
2022-10-02T14:29:26.652Z,12.1
2022-10-02T14:34:26.634Z,11.9
2022-10-02T14:39:26.676Z,12
2022-10-02T14:44:26.610Z,12
2022-10-02T14:49:28.521Z,12
2022-10-02T14:54:26.672Z,12.1
2022-10-02T14:59:26.728Z,12
2022-10-02T15:04:26.681Z,12
2022-10-02T15:09:26.625Z,12
2022-10-02T15:24:47.968Z,11.9
2022-10-02T15:29:26.702Z,11.9
2022-10-02T15:34:26.645Z,11.9
2022-10-02T15:39:26.670Z,11.9
2022-10-02T15:44:26.711Z,11.9
2022-10-02T15:49:26.656Z,11.9
2022-10-02T15:54:26.727Z,11.8
2022-10-02T15:59:26.630Z,11.8
2022-10-02T16:04:26.653Z,11.8
2022-10-02T16:09:26.633Z,11.7
2022-10-02T16:14:26.636Z,11.8
2022-10-02T16:19:26.715Z,11.7
2022-10-02T16:24:26.754Z,11.6
2022-10-02T16:29:26.740Z,11.6
2022-10-02T16:34:26.678Z,11.6
2022-10-02T16:39:26.809Z,11.5
2022-10-02T16:44:26.649Z,11.5
2022-10-02T16:49:26.665Z,11.5
2022-10-02T16:54:26.744Z,11.5
2022-10-02T16:59:26.632Z,11.4
2022-10-02T17:04:26.673Z,11.4
2022-10-02T17:09:26.837Z,11.4
2022-10-02T17:14:26.896Z,11.4
2022-10-02T17:19:26.826Z,11.4
2022-10-02T17:24:26.949Z,11.3
2022-10-02T17:29:26.832Z,11.3
2022-10-02T17:34:26.918Z,11.3
2022-10-02T17:39:27.009Z,11.1
2022-10-02T17:44:26.765Z,11.1
2022-10-02T17:49:26.760Z,11.1
2022-10-02T18:01:24.691Z,11.1
2022-10-02T18:04:26.852Z,11.2
2022-10-02T18:09:26.765Z,11.1
2022-10-02T18:14:26.735Z,11.1
2022-10-02T18:19:26.739Z,11.1
2022-10-02T18:24:26.662Z,11
2022-10-02T18:29:26.702Z,11
2022-10-02T18:34:26.690Z,11.1
2022-10-02T18:39:26.683Z,11.1
2022-10-02T18:44:26.701Z,11.1
2022-10-02T18:49:26.723Z,11.1
2022-10-02T18:54:26.695Z,11.1
2022-10-02T18:59:26.717Z,11
2022-10-02T19:04:26.768Z,11
2022-10-02T19:09:26.673Z,11
2022-10-02T19:14:26.686Z,11.1
2022-10-02T19:19:26.673Z,11
2022-10-02T19:24:26.678Z,11.1
2022-10-02T19:29:27.484Z,11.1
2022-10-02T19:34:26.743Z,11
2022-10-02T19:39:26.662Z,10.9
2022-10-02T19:44:26.715Z,10.9
2022-10-02T19:49:26.737Z,10.8
2022-10-02T19:54:26.787Z,10.6
2022-10-02T19:59:26.745Z,10.6
2022-10-02T20:04:26.703Z,10.4
2022-10-02T20:09:26.711Z,10.5
2022-10-02T20:14:26.722Z,10.3
2022-10-02T20:19:26.874Z,10.3
2022-10-02T20:24:26.720Z,10.1
2022-10-02T20:29:26.719Z,9.9
2022-10-02T20:34:26.727Z,9.8
2022-10-02T20:39:26.713Z,10.1
2022-10-02T20:44:26.676Z,10.2
2022-10-02T20:49:26.694Z,10.4
2022-10-02T20:54:26.711Z,10.4
2022-10-02T20:59:26.704Z,10.4
2022-10-02T21:04:26.773Z,10.3
2022-10-02T21:09:26.729Z,10.4
2022-10-02T21:14:26.706Z,10.5
2022-10-02T21:19:26.990Z,10.5
2022-10-02T21:24:26.776Z,10.4
2022-10-02T21:29:26.696Z,10.4
2022-10-02T21:34:26.764Z,10.3
2022-10-02T21:39:26.745Z,10.2
2022-10-02T21:44:26.747Z,10.1
2022-10-02T21:49:26.773Z,10.1
2022-10-02T21:54:26.713Z,10.1
2022-10-02T21:59:26.732Z,9.9
2022-10-02T22:04:26.701Z,9.8
2022-10-02T22:09:26.872Z,9.8
2022-10-02T22:14:26.840Z,9.8
2022-10-02T22:19:26.790Z,9.9
2022-10-02T22:24:27.533Z,10
2022-10-02T22:29:26.771Z,10
2022-10-02T22:34:26.808Z,10.1
2022-10-02T22:39:27.810Z,10.2
2022-10-02T22:44:26.798Z,10.2
2022-10-02T22:49:26.738Z,10.3
2022-10-02T22:54:26.720Z,10.3
2022-10-02T22:59:26.722Z,10.3
2022-10-02T23:04:26.827Z,10.3
2022-10-02T23:09:26.835Z,10.3
2022-10-02T23:14:26.774Z,10.3
2022-10-02T23:19:26.763Z,10.2
2022-10-02T23:24:26.769Z,10.1
2022-10-02T23:29:26.778Z,10.1
2022-10-02T23:34:26.708Z,10.1
2022-10-02T23:39:26.760Z,10.1
2022-10-02T23:44:26.737Z,9.9
2022-10-02T23:49:26.768Z,9.9
2022-10-02T23:54:26.811Z,9.7
2022-10-02T23:59:26.845Z,9.6
